createdAt,value
2022-09-11T00:01:16.101Z,100961.88
2022-09-11T00:03:43.949Z,100966.28
2022-09-11T00:06:14.178Z,100964.47
2022-09-11T00:08:41.773Z,100963.72
2022-09-11T00:11:13.832Z,100974.47
2022-09-11T00:13:40.894Z,100971.88
2022-09-11T00:16:19.096Z,100972.16
2022-09-11T00:18:46.934Z,100978.47
2022-09-11T00:21:13.630Z,100973.09
2022-09-11T00:23:40.354Z,100982.22
2022-09-11T00:26:07.423Z,100968.91
2022-09-11T00:28:34.643Z,100972.47
2022-09-11T00:31:03.846Z,100971.81
2022-09-11T00:33:30.800Z,100975.53
2022-09-11T00:36:00.512Z,100973.03
2022-09-11T00:38:29.113Z,100976.59
2022-09-11T00:40:58.453Z,100980.25
2022-09-11T00:43:27.429Z,100971.38
2022-09-11T00:46:03.711Z,100975.81
2022-09-11T00:48:34.436Z,100975.88
2022-09-11T00:51:03.969Z,100983.19
2022-09-11T00:53:34.613Z,100978.00
2022-09-11T00:56:04.105Z,100987.09
2022-09-11T00:58:35.918Z,100985.28
2022-09-11T01:01:03.515Z,100980.16
2022-09-11T01:03:32.273Z,100988.41
2022-09-11T01:05:59.796Z,100988.50
2022-09-11T01:08:26.442Z,100994.03
2022-09-11T01:11:31.815Z,100987.88
2022-09-11T01:14:09.931Z,100981.69
2022-09-11T01:16:56.713Z,100987.09
2022-09-11T01:19:40.590Z,100979.91
2022-09-11T01:22:13.349Z,100983.03
2022-09-11T01:25:05.114Z,100981.09
2022-09-11T01:27:40.864Z,100981.19
2022-09-11T01:30:11.903Z,100979.28
2022-09-11T01:33:00.260Z,100979.34
2022-09-11T01:35:48.299Z,100979.34
2022-09-11T01:38:46.292Z,100981.19
2022-09-11T01:41:17.349Z,100983.03
2022-09-11T01:43:56.772Z,100983.81
2022-09-11T01:46:25.832Z,100981.28
2022-09-11T01:49:01.867Z,100984.16
2022-09-11T01:51:30.923Z,100983.19
2022-09-11T01:54:00.274Z,100984.16
2022-09-11T01:56:34.765Z,100987.97
2022-09-11T01:59:05.242Z,100991.59
2022-09-11T02:01:37.062Z,100993.34
2022-09-11T02:04:19.431Z,100987.34
2022-09-11T02:06:49.559Z,100992.91
2022-09-11T02:09:20.437Z,100988.38
2022-09-11T02:11:48.800Z,100992.91
2022-09-11T02:14:26.054Z,100996.53
2022-09-11T02:17:15.577Z,100998.28
2022-09-11T02:19:43.323Z,100996.53
2022-09-11T02:22:10.068Z,100998.44
2022-09-11T02:24:37.770Z,100999.56
2022-09-11T02:27:07.966Z,101008.56
2022-09-11T02:29:35.256Z,101004.09
2022-09-11T02:32:04.036Z,101005.09
2022-09-11T02:34:34.792Z,101004.16
2022-09-11T02:37:12.094Z,101001.56
2022-09-11T02:40:06.196Z,101006.16
2022-09-11T02:42:35.571Z,101009.88
2022-09-11T02:45:23.351Z,101003.63
2022-09-11T02:47:50.500Z,101004.66
2022-09-11T02:50:43.762Z,100997.47
2022-09-11T02:53:24.548Z,101001.09
2022-09-11T02:56:04.956Z,101000.25
2022-09-11T02:58:38.758Z,101004.06
2022-09-11T03:01:08.545Z,101009.59
2022-09-11T03:03:45.777Z,101012.28
2022-09-11T03:06:24.953Z,101014.13
2022-09-11T03:08:51.953Z,101015.19
2022-09-11T03:11:20.139Z,101015.09
2022-09-11T03:13:48.873Z,101020.63
2022-09-11T03:16:16.576Z,101020.97
2022-09-11T03:18:44.227Z,101028.06
2022-09-11T03:21:11.903Z,101021.22
2022-09-11T03:23:38.871Z,101026.41
2022-09-11T03:26:05.687Z,101030.16
2022-09-11T03:28:32.687Z,101030.16
2022-09-11T03:30:59.508Z,101038.13
2022-09-11T03:33:26.707Z,101044.38
2022-09-11T03:35:53.644Z,101047.94
2022-09-11T03:38:20.686Z,101045.81
2022-09-11T03:40:47.667Z,101057.56
2022-09-11T03:43:16.762Z,101053.00
2022-09-11T03:45:44.915Z,101070.31
2022-09-11T03:48:13.436Z,101070.88
2022-09-11T03:50:40.359Z,101074.94
2022-09-11T03:53:08.701Z,101066.94
2022-09-11T03:55:35.458Z,101071.03
2022-09-11T03:58:02.187Z,101074.81
2022-09-11T04:00:29.005Z,101076.03
2022-09-11T04:02:57.318Z,101078.00
2022-09-11T04:05:45.235Z,101080.44
2022-09-11T04:08:13.325Z,101078.31
2022-09-11T04:10:43.272Z,101084.53
2022-09-11T04:13:09.934Z,101083.59
2022-09-11T04:15:36.641Z,101079.72
2022-09-11T04:18:07.352Z,101075.88
2022-09-11T04:20:39.777Z,101089.69
2022-09-11T04:23:07.138Z,101087.50
2022-09-11T04:25:33.856Z,101088.38
2022-09-11T04:28:02.800Z,101099.13
2022-09-11T04:30:29.599Z,101091.13
2022-09-11T04:32:56.312Z,101096.72
2022-09-11T04:35:23.443Z,101093.97
2022-09-11T04:37:55.126Z,101098.19
2022-09-11T04:40:21.888Z,101108.63
2022-09-11T04:42:48.661Z,101111.66
2022-09-11T04:45:15.482Z,101114.78
2022-09-11T04:47:42.500Z,101109.41
2022-09-11T04:50:12.966Z,101116.03
2022-09-11T04:52:40.973Z,101109.16
2022-09-11T04:55:08.867Z,101113.72
2022-09-11T04:57:35.553Z,101098.50
2022-09-11T05:00:02.677Z,101099.13
2022-09-11T05:02:29.437Z,101110.56
2022-09-11T05:04:56.608Z,101111.72
2022-09-11T05:07:25.299Z,101107.84
2022-09-11T05:09:54.610Z,101115.59
2022-09-11T05:12:22.158Z,101110.94
2022-09-11T05:14:48.903Z,101117.00
2022-09-11T05:17:15.678Z,101116.75
2022-09-11T05:19:43.646Z,101111.38
2022-09-11T05:22:10.576Z,101113.81
2022-09-11T05:24:41.585Z,101117.00
2022-09-11T05:27:12.157Z,101121.97
2022-09-11T05:29:39.320Z,101122.69
2022-09-11T05:32:10.980Z,101126.09
2022-09-11T05:34:37.650Z,101126.34
2022-09-11T05:37:05.590Z,101129.63
2022-09-11T05:39:38.136Z,101134.94
2022-09-11T05:42:06.428Z,101134.78
2022-09-11T05:44:37.114Z,101142.69
2022-09-11T05:47:04.894Z,101144.53
2022-09-11T05:49:32.146Z,101156.31
2022-09-11T05:52:01.276Z,101159.47
2022-09-11T05:54:29.756Z,101156.53
2022-09-11T05:57:07.443Z,101166.09
2022-09-11T05:59:36.797Z,101168.00
2022-09-11T06:02:03.775Z,101176.94
2022-09-11T06:04:39.108Z,101182.97
2022-09-11T06:07:06.887Z,101189.63
2022-09-11T06:09:34.675Z,101182.97
2022-09-11T06:12:01.926Z,101182.97
2022-09-11T06:14:29.336Z,101193.78
2022-09-11T06:16:57.470Z,101191.19
2022-09-11T06:19:25.878Z,101195.09
2022-09-11T06:21:52.699Z,101198.31
2022-09-11T06:24:30.012Z,101201.13
2022-09-11T06:26:57.218Z,101210.59
2022-09-11T06:29:26.120Z,101204.03
2022-09-11T06:31:54.348Z,101203.63
2022-09-11T06:34:24.094Z,101206.81
2022-09-11T06:36:52.490Z,101207.44
2022-09-11T06:39:23.080Z,101212.19
2022-09-11T06:41:50.795Z,101210.22
2022-09-11T06:44:20.208Z,101217.59
2022-09-11T06:46:47.928Z,101221.38
2022-09-11T06:49:14.770Z,101218.06
2022-09-11T06:52:10.539Z,101221.56
2022-09-11T06:54:38.872Z,101223.06
2022-09-11T06:57:10.012Z,101212.19
2022-09-11T06:59:36.822Z,101219.53
2022-09-11T07:02:04.033Z,101215.97
2022-09-11T07:04:30.970Z,101222.63
2022-09-11T07:06:59.317Z,101219.59
2022-09-11T07:09:26.293Z,101211.84
2022-09-11T07:11:55.828Z,101220.06
2022-09-11T07:14:25.053Z,101222.78
2022-09-11T07:16:58.680Z,101229.28
2022-09-11T07:19:27.768Z,101234.06
2022-09-11T07:21:54.729Z,101225.47
2022-09-11T07:24:24.724Z,101220.59
2022-09-11T07:26:51.525Z,101228.06
2022-09-11T07:29:25.327Z,101236.16
2022-09-11T07:31:52.307Z,101231.81
2022-09-11T07:34:19.199Z,101243.66
2022-09-11T07:36:46.793Z,101242.53
2022-09-11T07:39:13.514Z,101244.88
2022-09-11T07:42:00.509Z,101247.91
2022-09-11T07:44:30.291Z,101242.88
2022-09-11T07:46:57.914Z,101245.03
2022-09-11T07:49:25.098Z,101242.09
2022-09-11T07:51:54.411Z,101245.72
2022-09-11T07:54:31.229Z,101243.81
2022-09-11T07:56:58.529Z,101251.38
2022-09-11T07:59:25.466Z,101252.09
2022-09-11T08:01:54.348Z,101249.91
2022-09-11T08:04:23.305Z,101254.16
2022-09-11T08:06:50.965Z,101248.47
2022-09-11T08:09:22.046Z,101252.41
2022-09-11T08:11:58.622Z,101248.94
2022-09-11T08:14:27.474Z,101258.38
2022-09-11T08:16:58.832Z,101259.56
2022-09-11T08:19:28.277Z,101261.00
2022-09-11T08:21:58.826Z,101262.69
2022-09-11T08:24:27.571Z,101271.75
2022-09-11T08:26:59.158Z,101267.41
2022-09-11T08:29:26.787Z,101272.22
2022-09-11T08:31:58.146Z,101270.75
2022-09-11T08:34:28.693Z,101286.88
2022-09-11T08:36:55.453Z,101278.84
2022-09-11T08:39:25.451Z,101276.63
2022-09-11T08:42:02.631Z,101277.06
2022-09-11T08:44:54.281Z,101274.84
2022-09-11T08:47:36.440Z,101281.75
2022-09-11T08:50:40.347Z,101285.09
2022-09-11T08:53:14.716Z,101287.22
2022-09-11T08:55:51.418Z,101281.25
2022-09-11T08:58:29.619Z,101283.94
2022-09-11T09:01:03.538Z,101283.34
2022-09-11T09:04:01.297Z,101279.91
2022-09-11T09:07:03.514Z,101277.53
2022-09-11T09:09:48.395Z,101279.22
2022-09-11T09:12:33.671Z,101283.59
2022-09-11T09:15:13.984Z,101285.06
2022-09-11T09:18:20.150Z,101289.97
2022-09-11T09:21:01.362Z,101291.69
2022-09-11T09:23:33.134Z,101290.94
2022-09-11T09:26:01.192Z,101294.28
2022-09-11T09:28:38.094Z,101293.13
2022-09-11T09:31:07.622Z,101301.59
2022-09-11T09:33:44.465Z,101299.97
2022-09-11T09:36:17.621Z,101292.41
2022-09-11T09:38:46.614Z,101288.81
2022-09-11T09:41:26.441Z,101292.09
2022-09-11T09:44:24.204Z,101296.84
2022-09-11T09:46:53.438Z,101296.22
2022-09-11T09:49:24.811Z,101292.53
2022-09-11T09:51:51.994Z,101291.31
2022-09-11T09:54:21.757Z,101303.47
2022-09-11T09:56:57.170Z,101290.25
2022-09-11T09:59:32.359Z,101297.28
2022-09-11T10:01:59.354Z,101302.81
2022-09-11T10:04:27.951Z,101304.31
2022-09-11T10:07:06.358Z,101302.91
2022-09-11T10:09:33.474Z,101302.25
2022-09-11T10:12:08.974Z,101313.34
2022-09-11T10:14:51.515Z,101314.19
2022-09-11T10:17:35.445Z,101306.75
2022-09-11T10:20:23.819Z,101307.88
2022-09-11T10:22:51.671Z,101308.69
2022-09-11T10:25:30.254Z,101305.72
2022-09-11T10:28:05.981Z,101304.66
2022-09-11T10:30:41.863Z,101310.94
2022-09-11T10:33:41.412Z,101311.28
2022-09-11T10:36:10.024Z,101308.56
2022-09-11T10:38:45.139Z,101319.94
2022-09-11T10:41:23.813Z,101309.09
2022-09-11T10:44:01.871Z,101310.41
2022-09-11T10:46:38.963Z,101307.03
2022-09-11T10:49:05.953Z,101306.56
2022-09-11T10:51:34.857Z,101313.59
2022-09-11T10:54:07.752Z,101307.19
2022-09-11T10:56:39.280Z,101315.16
2022-09-11T10:59:12.536Z,101322.66
2022-09-11T11:01:40.157Z,101319.28
2022-09-11T11:04:12.370Z,101322.56
2022-09-11T11:07:08.183Z,101313.88
2022-09-11T11:09:38.053Z,101314.53
2022-09-11T11:12:18.342Z,101316.88
2022-09-11T11:15:25.870Z,101316.56
2022-09-11T11:18:19.417Z,101306.47
2022-09-11T11:21:01.795Z,101310.44
2022-09-11T11:23:50.825Z,101310.78
2022-09-11T11:26:36.942Z,101312.72
2022-09-11T11:29:09.759Z,101314.47
2022-09-11T11:31:44.430Z,101319.16
2022-09-11T11:34:38.663Z,101317.56
2022-09-11T11:37:14.616Z,101325.56
2022-09-11T11:39:49.066Z,101324.78
2022-09-11T11:42:30.400Z,101317.69
2022-09-11T11:44:59.664Z,101316.91
2022-09-11T11:47:31.240Z,101321.72
2022-09-11T11:50:06.036Z,101322.38
2022-09-11T11:52:51.985Z,101320.69
2022-09-11T11:55:25.893Z,101315.59
2022-09-11T11:58:04.675Z,101314.97
2022-09-11T12:00:35.391Z,101317.47
2022-09-11T12:03:11.474Z,101331.50
2022-09-11T12:05:38.607Z,101325.59
2022-09-11T12:08:12.317Z,101326.38
2022-09-11T12:10:42.652Z,101331.34
2022-09-11T12:13:15.660Z,101330.03
2022-09-11T12:16:01.666Z,101329.59
2022-09-11T12:18:29.234Z,101320.03
2022-09-11T12:21:24.957Z,101325.28
2022-09-11T12:23:57.784Z,101327.63
2022-09-11T12:26:27.576Z,101327.75
2022-09-11T12:29:11.886Z,101328.94
2022-09-11T12:31:50.952Z,101324.16
2022-09-11T12:34:43.324Z,101328.53
2022-09-11T12:37:19.206Z,101332.88
2022-09-11T12:39:51.198Z,101328.00
2022-09-11T12:42:24.067Z,101325.38
2022-09-11T12:44:50.898Z,101329.06
2022-09-11T12:47:38.920Z,101333.94
2022-09-11T12:50:05.643Z,101339.91
2022-09-11T12:52:40.355Z,101344.28
2022-09-11T12:55:23.377Z,101342.72
2022-09-11T12:57:52.256Z,101336.28
2022-09-11T13:00:36.789Z,101337.50
2022-09-11T13:03:05.132Z,101335.94
2022-09-11T13:05:37.923Z,101342.41
2022-09-11T13:08:24.298Z,101347.63
2022-09-11T13:10:51.105Z,101344.56
2022-09-11T13:13:38.435Z,101343.28
2022-09-11T13:16:20.313Z,101333.94
2022-09-11T13:18:47.038Z,101329.50
2022-09-11T13:21:19.569Z,101330.47
2022-09-11T13:23:48.261Z,101323.44
2022-09-11T13:26:26.345Z,101318.13
2022-09-11T13:28:55.619Z,101310.28
2022-09-11T13:31:32.041Z,101314.84
2022-09-11T13:33:59.254Z,101305.84
2022-09-11T13:36:26.249Z,101312.56
2022-09-11T13:38:57.131Z,101312.81
2022-09-11T13:41:32.295Z,101311.16
2022-09-11T13:44:00.458Z,101322.88
2022-09-11T13:46:30.592Z,101321.91
2022-09-11T13:49:17.507Z,101325.25
2022-09-11T13:51:46.279Z,101323.53
2022-09-11T13:54:26.258Z,101334.91
2022-09-11T13:56:56.015Z,101329.50
2022-09-11T13:59:48.272Z,101333.06
2022-09-11T14:02:47.565Z,101331.53
2022-09-11T14:05:28.593Z,101330.88
2022-09-11T14:08:07.901Z,101334.13
2022-09-11T14:10:53.959Z,101333.03
2022-09-11T14:13:23.227Z,101330.31
2022-09-11T14:15:58.952Z,101331.06
2022-09-11T14:18:32.262Z,101331.50
2022-09-11T14:21:01.185Z,101330.44
2022-09-11T14:23:29.598Z,101335.00
2022-09-11T14:26:16.169Z,101334.75
2022-09-11T14:28:58.156Z,101336.19
2022-09-11T14:31:28.816Z,101341.94
2022-09-11T14:34:29.905Z,101337.56
2022-09-11T14:36:59.345Z,101329.44
2022-09-11T14:39:28.828Z,101326.97
2022-09-11T14:41:56.100Z,101329.34
2022-09-11T14:44:24.245Z,101320.78
2022-09-11T14:46:50.994Z,101334.16
2022-09-11T14:49:17.945Z,101331.72
2022-09-11T14:51:49.080Z,101337.69
2022-09-11T14:54:16.367Z,101330.94
2022-09-11T14:56:43.194Z,101334.50
2022-09-11T14:59:10.340Z,101335.38
2022-09-11T15:01:37.109Z,101343.41
2022-09-11T15:04:03.988Z,101330.34
2022-09-11T15:06:31.265Z,101332.91
2022-09-11T15:08:58.530Z,101337.16
2022-09-11T15:11:25.646Z,101332.31
2022-09-11T15:14:14.530Z,101331.66
2022-09-11T15:16:39.071Z,101330.69
2022-09-11T15:19:05.773Z,101331.22
2022-09-11T15:21:36.893Z,101300.81
2022-09-11T15:24:05.651Z,101331.22
2022-09-11T15:26:33.650Z,101334.25
2022-09-11T15:29:00.705Z,101333.97
2022-09-11T15:31:30.524Z,101330.59
2022-09-11T15:33:57.297Z,101332.53
2022-09-11T15:36:25.366Z,101332.66
2022-09-11T15:38:53.492Z,101329.88
2022-09-11T15:41:22.208Z,101318.41
2022-09-11T15:43:50.597Z,101326.66
2022-09-11T15:46:21.353Z,101333.81
2022-09-11T15:48:49.675Z,101328.50
2022-09-11T15:51:21.285Z,101341.56
2022-09-11T15:53:48.800Z,101340.09
2022-09-11T15:56:23.846Z,101341.34
2022-09-11T15:58:52.873Z,101342.38
2022-09-11T16:01:32.312Z,101333.50
2022-09-11T16:04:01.963Z,101333.31
2022-09-11T16:06:30.781Z,101334.38
2022-09-11T16:08:58.924Z,101331.69
2022-09-11T16:11:26.343Z,101329.81
2022-09-11T16:13:53.743Z,101325.00
2022-09-11T16:16:20.973Z,101322.41
2022-09-11T16:18:47.809Z,101337.69
2022-09-11T16:21:14.998Z,101325.25
2022-09-11T16:23:42.161Z,101323.69
2022-09-11T16:26:11.781Z,101331.16
2022-09-11T16:28:39.908Z,101331.44
2022-09-11T16:31:07.863Z,101330.66
2022-09-11T16:33:40.539Z,101323.63
2022-09-11T16:36:08.949Z,101322.09
2022-09-11T16:38:38.098Z,101324.34
2022-09-11T16:41:25.393Z,101312.06
2022-09-11T16:43:53.252Z,101321.13
2022-09-11T16:46:22.323Z,101324.13
2022-09-11T16:48:53.953Z,101328.75
2022-09-11T16:51:21.329Z,101318.25
2022-09-11T16:53:48.204Z,101318.72
2022-09-11T16:56:17.842Z,101319.13
2022-09-11T16:58:44.737Z,101326.75
2022-09-11T17:01:16.617Z,101315.38
2022-09-11T17:03:45.615Z,101327.34
2022-09-11T17:06:14.704Z,101330.44
2022-09-11T17:08:42.718Z,101326.19
2022-09-11T17:11:14.029Z,101334.56
2022-09-11T17:13:42.466Z,101338.25
2022-09-11T17:16:18.045Z,101336.59
2022-09-11T17:18:47.518Z,101328.69
2022-09-11T17:21:14.743Z,101321.72
2022-09-11T17:23:42.582Z,101325.38
2022-09-11T17:26:11.050Z,101328.38
2022-09-11T17:28:38.538Z,101340.13
2022-09-11T17:31:07.895Z,101337.56
2022-09-11T17:33:35.826Z,101339.34
2022-09-11T17:36:03.991Z,101340.44
2022-09-11T17:38:31.315Z,101344.97
2022-09-11T17:41:00.001Z,101339.94
2022-09-11T17:43:26.744Z,101347.06
2022-09-11T17:46:07.289Z,101338.31
2022-09-11T17:48:35.172Z,101342.91
2022-09-11T17:51:11.251Z,101340.38
2022-09-11T17:53:44.190Z,101344.03
2022-09-11T17:56:14.480Z,101346.22
2022-09-11T17:58:42.899Z,101341.19
2022-09-11T18:01:11.712Z,101337.03
2022-09-11T18:03:41.511Z,101338.88
2022-09-11T18:06:36.340Z,101342.63
2022-09-11T18:09:12.035Z,101346.72
2022-09-11T18:11:39.885Z,101334.44
2022-09-11T18:14:07.017Z,101338.13
2022-09-11T18:16:33.784Z,101341.44
2022-09-11T18:19:01.614Z,101349.66
2022-09-11T18:21:28.913Z,101346.34
2022-09-11T18:23:56.080Z,101348.63
2022-09-11T18:26:27.568Z,101353.50
2022-09-11T18:29:06.321Z,101354.72
2022-09-11T18:31:47.142Z,101355.94
2022-09-11T18:34:16.349Z,101353.50
2022-09-11T18:36:43.606Z,101360.88
2022-09-11T18:39:10.981Z,101359.38
2022-09-11T18:41:37.849Z,101367.63
2022-09-11T18:44:11.055Z,101364.06
2022-09-11T18:46:37.840Z,101364.50
2022-09-11T18:49:05.173Z,101376.25
2022-09-11T18:51:32.536Z,101375.63
2022-09-11T18:54:00.232Z,101380.31
2022-09-11T18:56:28.565Z,101385.91
2022-09-11T18:58:56.272Z,101383.28
2022-09-11T19:01:25.739Z,101396.16
2022-09-11T19:03:53.428Z,101385.66
2022-09-11T19:06:22.963Z,101390.38
2022-09-11T19:08:50.278Z,101397.06
2022-09-11T19:11:22.201Z,101399.03
2022-09-11T19:13:49.583Z,101393.91
2022-09-11T19:16:17.837Z,101400.47
2022-09-11T19:18:44.570Z,101401.53
2022-09-11T19:21:16.287Z,101403.44
2022-09-11T19:23:44.896Z,101404.63
2022-09-11T19:26:38.367Z,101405.72
2022-09-11T19:29:06.522Z,101406.91
2022-09-11T19:31:33.961Z,101410.72
2022-09-11T19:34:01.750Z,101415.44
2022-09-11T19:36:30.567Z,101414.56
2022-09-11T19:39:00.647Z,101414.88
2022-09-11T19:41:30.322Z,101420.59
2022-09-11T19:44:04.374Z,101427.00
2022-09-11T19:46:33.259Z,101420.25
2022-09-11T19:49:03.248Z,101422.00
2022-09-11T19:51:32.685Z,101430.28
2022-09-11T19:54:00.719Z,101425.16
2022-09-11T19:56:28.463Z,101422.69
2022-09-11T19:58:55.465Z,101412.97
2022-09-11T20:01:24.206Z,101420.13
2022-09-11T20:03:55.434Z,101429.25
2022-09-11T20:06:25.017Z,101427.66
2022-09-11T20:09:07.953Z,101425.22
2022-09-11T20:11:42.524Z,101426.31
2022-09-11T20:14:09.807Z,101427.38
2022-09-11T20:16:36.808Z,101424.84
2022-09-11T20:19:06.515Z,101427.66
2022-09-11T20:21:35.392Z,101429.66
2022-09-11T20:24:02.826Z,101426.25
2022-09-11T20:26:30.652Z,101429.00
2022-09-11T20:29:02.678Z,101432.78
2022-09-11T20:31:39.042Z,101427.53
2022-09-11T20:34:09.175Z,101426.16
2022-09-11T20:36:35.952Z,101428.78
2022-09-11T20:39:03.124Z,101429.94
2022-09-11T20:41:30.936Z,101432.88
2022-09-11T20:44:00.386Z,101439.22
2022-09-11T20:46:27.414Z,101434.91
2022-09-11T20:48:54.402Z,101439.50
2022-09-11T20:51:21.967Z,101439.66
2022-09-11T20:53:49.156Z,101441.59
2022-09-11T20:56:24.016Z,101445.22
2022-09-11T20:58:51.398Z,101439.16
2022-09-11T21:01:21.513Z,101440.06
2022-09-11T21:03:53.624Z,101435.78
2022-09-11T21:06:25.619Z,101439.41
2022-09-11T21:08:58.246Z,101442.97
2022-09-11T21:11:27.202Z,101441.22
2022-09-11T21:13:54.079Z,101437.66
2022-09-11T21:16:21.238Z,101434.91
2022-09-11T21:18:52.985Z,101430.34
2022-09-11T21:21:20.777Z,101439.19
2022-09-11T21:23:47.989Z,101430.41
2022-09-11T21:26:16.775Z,101440.13
2022-09-11T21:28:43.626Z,101437.44
2022-09-11T21:31:11.020Z,101435.50
2022-09-11T21:33:38.026Z,101441.72
2022-09-11T21:36:05.634Z,101432.75
2022-09-11T21:38:32.347Z,101436.34
2022-09-11T21:41:00.504Z,101445.16
2022-09-11T21:43:28.138Z,101443.44
2022-09-11T21:45:54.863Z,101437.03
2022-09-11T21:48:21.574Z,101443.22
2022-09-11T21:50:48.451Z,101436.00
2022-09-11T21:53:15.710Z,101441.31
2022-09-11T21:55:44.161Z,101432.16
2022-09-11T21:58:21.017Z,101434.63
2022-09-11T22:00:48.931Z,101427.50
2022-09-11T22:03:18.642Z,101434.53
2022-09-11T22:05:47.895Z,101434.47
2022-09-11T22:08:18.109Z,101429.88
2022-09-11T22:10:47.617Z,101431.63
2022-09-11T22:13:15.116Z,101430.63
2022-09-11T22:15:42.339Z,101434.19
2022-09-11T22:18:09.200Z,101430.44
2022-09-11T22:20:39.572Z,101424.16
2022-09-11T22:23:06.972Z,101432.00
2022-09-11T22:25:36.808Z,101438.22
2022-09-11T22:28:04.621Z,101428.34
2022-09-11T22:30:31.687Z,101425.44
2022-09-11T22:32:58.648Z,101433.44
2022-09-11T22:35:25.534Z,101431.41
2022-09-11T22:37:52.361Z,101438.53
2022-09-11T22:40:19.487Z,101441.13
2022-09-11T22:42:46.162Z,101441.06
2022-09-11T22:45:12.824Z,101437.34
2022-09-11T22:47:39.493Z,101438.25
2022-09-11T22:50:06.571Z,101437.22
2022-09-11T22:52:33.300Z,101439.84
2022-09-11T22:54:59.987Z,101427.25
2022-09-11T22:57:29.102Z,101437.94
2022-09-11T22:59:56.286Z,101434.28
2022-09-11T23:02:23.091Z,101439.59
2022-09-11T23:05:08.563Z,101431.44
2022-09-11T23:07:35.272Z,101438.66
2022-09-11T23:10:02.095Z,101432.38
2022-09-11T23:12:28.873Z,101430.59
2022-09-11T23:14:56.158Z,101427.97
2022-09-11T23:17:22.880Z,101431.53
2022-09-11T23:19:49.515Z,101428.03
2022-09-11T23:22:16.236Z,101427.25
2022-09-11T23:24:42.918Z,101420.25
2022-09-11T23:27:09.633Z,101422.09
2022-09-11T23:29:36.357Z,101426.66
2022-09-11T23:32:03.230Z,101418.81
2022-09-11T23:34:30.618Z,101418.09
2022-09-11T23:36:57.301Z,101432.78
2022-09-11T23:39:24.116Z,101428.50
2022-09-11T23:41:50.818Z,101421.66
2022-09-11T23:44:17.893Z,101428.19
2022-09-11T23:46:44.824Z,101417.63
2022-09-11T23:49:12.347Z,101420.47
2022-09-11T23:51:42.757Z,101419.75
2022-09-11T23:54:09.446Z,101421.75
2022-09-11T23:56:36.149Z,101411.28
2022-09-11T23:59:02.870Z,101414.03
